sensor_id;sensor_type;location;lat;lon;timestamp;P1;durP1;ratioP1;P2;durP2;ratioP2
11847;SDS011;5983;49.966;8.052;2023-04-06T00:00:34;8.30;;;5.40;;
11847;SDS011;5983;49.966;8.052;2023-04-06T00:03:01;6.83;;;4.77;;
11847;SDS011;5983;49.966;8.052;2023-04-06T00:05:27;7.37;;;4.90;;
11847;SDS011;5983;49.966;8.052;2023-04-06T00:07:55;8.47;;;5.13;;
11847;SDS011;5983;49.966;8.052;2023-04-06T00:10:23;6.00;;;4.40;;
11847;SDS011;5983;49.966;8.052;2023-04-06T00:12:51;7.57;;;5.13;;
11847;SDS011;5983;49.966;8.052;2023-04-06T00:15:19;9.50;;;5.23;;
11847;SDS011;5983;49.966;8.052;2023-04-06T00:17:46;9.33;;;4.90;;
11847;SDS011;5983;49.966;8.052;2023-04-06T00:20:13;6.90;;;4.70;;
11847;SDS011;5983;49.966;8.052;2023-04-06T00:22:41;6.83;;;4.33;;
11847;SDS011;5983;49.966;8.052;2023-04-06T00:25:08;6.37;;;4.67;;
11847;SDS011;5983;49.966;8.052;2023-04-06T00:27:36;6.20;;;4.47;;
11847;SDS011;5983;49.966;8.052;2023-04-06T00:30:03;6.47;;;4.63;;
11847;SDS011;5983;49.966;8.052;2023-04-06T00:32:32;6.37;;;5.00;;
11847;SDS011;5983;49.966;8.052;2023-04-06T00:34:59;7.87;;;5.17;;
11847;SDS011;5983;49.966;8.052;2023-04-06T00:37:28;7.73;;;4.60;;
11847;SDS011;5983;49.966;8.052;2023-04-06T00:39:55;6.33;;;4.63;;
11847;SDS011;5983;49.966;8.052;2023-04-06T00:42:22;6.57;;;4.60;;
11847;SDS011;5983;49.966;8.052;2023-04-06T00:44:51;6.07;;;4.50;;
11847;SDS011;5983;49.966;8.052;2023-04-06T00:47:19;8.23;;;5.60;;
11847;SDS011;5983;49.966;8.052;2023-04-06T00:49:48;6.70;;;4.83;;
11847;SDS011;5983;49.966;8.052;2023-04-06T00:52:15;6.70;;;5.07;;
11847;SDS011;5983;49.966;8.052;2023-04-06T00:54:42;5.73;;;4.33;;
11847;SDS011;5983;49.966;8.052;2023-04-06T00:57:09;6.83;;;5.17;;
11847;SDS011;5983;49.966;8.052;2023-04-06T00:59:37;9.03;;;6.13;;
11847;SDS011;5983;49.966;8.052;2023-04-06T01:02:04;6.83;;;5.13;;
11847;SDS011;5983;49.966;8.052;2023-04-06T01:04:31;6.60;;;4.80;;
11847;SDS011;5983;49.966;8.052;2023-04-06T01:07:00;8.80;;;4.93;;
11847;SDS011;5983;49.966;8.052;2023-04-06T01:09:27;7.67;;;5.00;;
11847;SDS011;5983;49.966;8.052;2023-04-06T01:11:55;5.63;;;4.20;;
11847;SDS011;5983;49.966;8.052;2023-04-06T01:14:22;6.70;;;4.80;;
11847;SDS011;5983;49.966;8.052;2023-04-06T01:16:49;8.20;;;5.00;;
11847;SDS011;5983;49.966;8.052;2023-04-06T01:19:16;7.87;;;4.70;;
11847;SDS011;5983;49.966;8.052;2023-04-06T01:21:43;8.77;;;4.67;;
11847;SDS011;5983;49.966;8.052;2023-04-06T01:24:11;5.80;;;4.67;;
11847;SDS011;5983;49.966;8.052;2023-04-06T01:26:40;7.13;;;5.20;;
11847;SDS011;5983;49.966;8.052;2023-04-06T01:29:07;10.67;;;4.97;;
11847;SDS011;5983;49.966;8.052;2023-04-06T01:31:34;7.37;;;5.53;;
11847;SDS011;5983;49.966;8.052;2023-04-06T01:34:01;10.40;;;5.60;;
11847;SDS011;5983;49.966;8.052;2023-04-06T01:36:28;7.43;;;5.27;;
11847;SDS011;5983;49.966;8.052;2023-04-06T01:38:55;8.43;;;5.43;;
11847;SDS011;5983;49.966;8.052;2023-04-06T01:41:24;8.63;;;5.40;;
11847;SDS011;5983;49.966;8.052;2023-04-06T01:43:51;8.03;;;5.23;;
11847;SDS011;5983;49.966;8.052;2023-04-06T01:46:19;8.33;;;5.40;;
11847;SDS011;5983;49.966;8.052;2023-04-06T01:48:46;8.80;;;5.00;;
11847;SDS011;5983;49.966;8.052;2023-04-06T01:51:13;9.23;;;5.83;;
11847;SDS011;5983;49.966;8.052;2023-04-06T01:53:40;11.13;;;6.47;;
11847;SDS011;5983;49.966;8.052;2023-04-06T01:56:07;8.37;;;5.53;;
11847;SDS011;5983;49.966;8.052;2023-04-06T01:58:36;8.50;;;5.67;;
11847;SDS011;5983;49.966;8.052;2023-04-06T02:01:03;8.70;;;5.60;;
11847;SDS011;5983;49.966;8.052;2023-04-06T02:03:30;9.27;;;5.50;;
11847;SDS011;5983;49.966;8.052;2023-04-06T02:05:57;8.23;;;5.67;;
11847;SDS011;5983;49.966;8.052;2023-04-06T02:08:24;11.47;;;5.90;;
11847;SDS011;5983;49.966;8.052;2023-04-06T02:10:51;7.80;;;5.87;;
11847;SDS011;5983;49.966;8.052;2023-04-06T02:13:18;8.73;;;5.97;;
11847;SDS011;5983;49.966;8.052;2023-04-06T02:15:46;9.40;;;5.93;;
11847;SDS011;5983;49.966;8.052;2023-04-06T02:18:13;9.57;;;5.80;;
11847;SDS011;5983;49.966;8.052;2023-04-06T02:20:40;7.13;;;5.57;;
11847;SDS011;5983;49.966;8.052;2023-04-06T02:23:07;6.57;;;5.40;;
11847;SDS011;5983;49.966;8.052;2023-04-06T02:25:34;7.97;;;5.73;;
11847;SDS011;5983;49.966;8.052;2023-04-06T02:28:01;7.83;;;5.30;;
11847;SDS011;5983;49.966;8.052;2023-04-06T02:30:28;9.60;;;5.13;;
11847;SDS011;5983;49.966;8.052;2023-04-06T02:32:58;8.90;;;6.00;;
11847;SDS011;5983;49.966;8.052;2023-04-06T02:35:25;8.77;;;5.70;;
11847;SDS011;5983;49.966;8.052;2023-04-06T02:37:53;9.30;;;5.27;;
11847;SDS011;5983;49.966;8.052;2023-04-06T02:40:20;6.83;;;5.43;;
11847;SDS011;5983;49.966;8.052;2023-04-06T02:42:47;7.60;;;4.90;;
11847;SDS011;5983;49.966;8.052;2023-04-06T02:45:14;6.00;;;5.03;;
11847;SDS011;5983;49.966;8.052;2023-04-06T02:47:41;6.60;;;4.73;;
11847;SDS011;5983;49.966;8.052;2023-04-06T02:50:09;7.70;;;5.20;;
11847;SDS011;5983;49.966;8.052;2023-04-06T02:52:36;6.73;;;5.07;;
11847;SDS011;5983;49.966;8.052;2023-04-06T02:55:04;6.67;;;4.73;;
11847;SDS011;5983;49.966;8.052;2023-04-06T02:57:32;7.87;;;5.17;;
11847;SDS011;5983;49.966;8.052;2023-04-06T02:59:59;7.03;;;5.30;;
11847;SDS011;5983;49.966;8.052;2023-04-06T03:02:26;8.20;;;5.90;;
11847;SDS011;5983;49.966;8.052;2023-04-06T03:04:53;6.60;;;5.20;;
11847;SDS011;5983;49.966;8.052;2023-04-06T03:07:21;7.30;;;5.63;;
11847;SDS011;5983;49.966;8.052;2023-04-06T03:09:48;9.03;;;6.00;;
11847;SDS011;5983;49.966;8.052;2023-04-06T03:12:15;7.90;;;5.43;;
11847;SDS011;5983;49.966;8.052;2023-04-06T03:14:42;8.33;;;5.80;;
11847;SDS011;5983;49.966;8.052;2023-04-06T03:17:09;9.33;;;6.30;;
11847;SDS011;5983;49.966;8.052;2023-04-06T03:19:36;7.60;;;5.40;;
11847;SDS011;5983;49.966;8.052;2023-04-06T03:22:03;12.60;;;5.23;;
11847;SDS011;5983;49.966;8.052;2023-04-06T03:24:31;7.77;;;5.40;;
11847;SDS011;5983;49.966;8.052;2023-04-06T03:26:58;7.23;;;5.30;;
11847;SDS011;5983;49.966;8.052;2023-04-06T03:29:26;6.97;;;4.87;;
11847;SDS011;5983;49.966;8.052;2023-04-06T03:31:53;6.33;;;5.13;;
11847;SDS011;5983;49.966;8.052;2023-04-06T03:34:20;6.43;;;5.50;;
11847;SDS011;5983;49.966;8.052;2023-04-06T03:36:47;7.23;;;5.53;;
11847;SDS011;5983;49.966;8.052;2023-04-06T03:39:13;9.87;;;5.47;;
11847;SDS011;5983;49.966;8.052;2023-04-06T03:41:42;7.37;;;5.67;;
11847;SDS011;5983;49.966;8.052;2023-04-06T03:44:09;8.93;;;5.67;;
11847;SDS011;5983;49.966;8.052;2023-04-06T03:46:36;12.63;;;6.03;;
11847;SDS011;5983;49.966;8.052;2023-04-06T03:49:03;13.57;;;5.83;;
11847;SDS011;5983;49.966;8.052;2023-04-06T03:51:29;8.43;;;5.30;;
11847;SDS011;5983;49.966;8.052;2023-04-06T03:53:56;9.27;;;5.70;;
11847;SDS011;5983;49.966;8.052;2023-04-06T03:56:23;9.20;;;5.83;;
11847;SDS011;5983;49.966;8.052;2023-04-06T03:58:52;10.17;;;6.20;;
11847;SDS011;5983;49.966;8.052;2023-04-06T04:01:19;10.07;;;5.93;;
11847;SDS011;5983;49.966;8.052;2023-04-06T04:03:46;6.83;;;5.20;;
11847;SDS011;5983;49.966;8.052;2023-04-06T04:06:13;7.80;;;5.60;;
11847;SDS011;5983;49.966;8.052;2023-04-06T04:08:40;9.70;;;5.47;;
11847;SDS011;5983;49.966;8.052;2023-04-06T04:11:07;8.23;;;5.67;;
11847;SDS011;5983;49.966;8.052;2023-04-06T04:13:33;8.13;;;5.90;;
11847;SDS011;5983;49.966;8.052;2023-04-06T04:16:02;9.77;;;5.60;;
11847;SDS011;5983;49.966;8.052;2023-04-06T04:18:29;11.00;;;5.80;;
11847;SDS011;5983;49.966;8.052;2023-04-06T04:20:56;8.73;;;5.50;;
11847;SDS011;5983;49.966;8.052;2023-04-06T04:23:23;9.43;;;6.23;;
11847;SDS011;5983;49.966;8.052;2023-04-06T04:25:50;7.67;;;5.83;;
11847;SDS011;5983;49.966;8.052;2023-04-06T04:28:17;7.33;;;5.37;;
11847;SDS011;5983;49.966;8.052;2023-04-06T04:30:43;8.20;;;5.37;;
11847;SDS011;5983;49.966;8.052;2023-04-06T04:33:12;7.33;;;5.43;;
11847;SDS011;5983;49.966;8.052;2023-04-06T04:35:38;7.60;;;5.27;;
11847;SDS011;5983;49.966;8.052;2023-04-06T04:38:05;8.23;;;5.57;;
11847;SDS011;5983;49.966;8.052;2023-04-06T04:40:32;7.30;;;5.60;;
11847;SDS011;5983;49.966;8.052;2023-04-06T04:42:59;9.90;;;5.23;;
11847;SDS011;5983;49.966;8.052;2023-04-06T04:45:26;7.93;;;5.97;;
11847;SDS011;5983;49.966;8.052;2023-04-06T04:47:53;6.40;;;5.13;;
11847;SDS011;5983;49.966;8.052;2023-04-06T04:50:21;8.53;;;6.00;;
11847;SDS011;5983;49.966;8.052;2023-04-06T04:52:48;8.03;;;6.40;;
11847;SDS011;5983;49.966;8.052;2023-04-06T04:55:15;9.17;;;5.63;;
11847;SDS011;5983;49.966;8.052;2023-04-06T04:57:42;9.70;;;5.47;;
11847;SDS011;5983;49.966;8.052;2023-04-06T05:00:09;8.47;;;5.73;;
11847;SDS011;5983;49.966;8.052;2023-04-06T05:02:38;9.03;;;5.73;;
11847;SDS011;5983;49.966;8.052;2023-04-06T05:05:05;11.53;;;5.57;;
11847;SDS011;5983;49.966;8.052;2023-04-06T05:07:34;8.83;;;5.83;;
11847;SDS011;5983;49.966;8.052;2023-04-06T05:10:01;7.17;;;5.40;;
11847;SDS011;5983;49.966;8.052;2023-04-06T05:12:28;7.70;;;5.70;;
11847;SDS011;5983;49.966;8.052;2023-04-06T05:14:55;7.47;;;5.13;;
11847;SDS011;5983;49.966;8.052;2023-04-06T05:17:22;7.80;;;5.60;;
11847;SDS011;5983;49.966;8.052;2023-04-06T05:19:50;11.70;;;5.97;;
11847;SDS011;5983;49.966;8.052;2023-04-06T05:22:17;7.67;;;5.40;;
11847;SDS011;5983;49.966;8.052;2023-04-06T05:24:46;7.10;;;5.30;;
11847;SDS011;5983;49.966;8.052;2023-04-06T05:27:13;9.40;;;5.50;;
11847;SDS011;5983;49.966;8.052;2023-04-06T05:29:40;9.10;;;5.80;;
11847;SDS011;5983;49.966;8.052;2023-04-06T05:32:07;8.17;;;5.83;;
11847;SDS011;5983;49.966;8.052;2023-04-06T05:34:33;9.17;;;5.07;;
11847;SDS011;5983;49.966;8.052;2023-04-06T05:37:00;8.27;;;5.73;;
11847;SDS011;5983;49.966;8.052;2023-04-06T05:39:27;7.13;;;5.43;;
11847;SDS011;5983;49.966;8.052;2023-04-06T05:41:56;7.80;;;5.50;;
11847;SDS011;5983;49.966;8.052;2023-04-06T05:44:23;5.53;;;4.97;;
11847;SDS011;5983;49.966;8.052;2023-04-06T05:46:50;7.00;;;5.43;;
11847;SDS011;5983;49.966;8.052;2023-04-06T05:49:16;8.37;;;5.77;;
11847;SDS011;5983;49.966;8.052;2023-04-06T05:51:43;10.60;;;6.07;;
11847;SDS011;5983;49.966;8.052;2023-04-06T05:54:10;8.37;;;5.03;;
11847;SDS011;5983;49.966;8.052;2023-04-06T05:56:37;9.30;;;5.80;;
11847;SDS011;5983;49.966;8.052;2023-04-06T05:59:05;8.13;;;5.50;;
11847;SDS011;5983;49.966;8.052;2023-04-06T06:01:32;6.57;;;5.27;;
11847;SDS011;5983;49.966;8.052;2023-04-06T06:04:00;7.83;;;5.30;;
11847;SDS011;5983;49.966;8.052;2023-04-06T06:06:27;8.13;;;6.00;;
11847;SDS011;5983;49.966;8.052;2023-04-06T06:08:55;6.97;;;5.70;;
11847;SDS011;5983;49.966;8.052;2023-04-06T06:11:23;8.47;;;6.20;;
11847;SDS011;5983;49.966;8.052;2023-04-06T06:13:50;8.20;;;5.27;;
11847;SDS011;5983;49.966;8.052;2023-04-06T06:16:19;8.13;;;5.80;;
11847;SDS011;5983;49.966;8.052;2023-04-06T06:18:46;8.47;;;5.33;;
11847;SDS011;5983;49.966;8.052;2023-04-06T06:21:13;9.50;;;6.07;;
11847;SDS011;5983;49.966;8.052;2023-04-06T06:23:42;10.30;;;5.90;;
11847;SDS011;5983;49.966;8.052;2023-04-06T06:26:09;11.00;;;5.33;;
11847;SDS011;5983;49.966;8.052;2023-04-06T06:28:35;7.03;;;5.00;;
11847;SDS011;5983;49.966;8.052;2023-04-06T06:31:02;6.93;;;5.20;;
11847;SDS011;5983;49.966;8.052;2023-04-06T06:33:31;8.60;;;5.23;;
11847;SDS011;5983;49.966;8.052;2023-04-06T06:35:57;6.50;;;4.60;;
11847;SDS011;5983;49.966;8.052;2023-04-06T06:38:25;6.23;;;4.80;;
11847;SDS011;5983;49.966;8.052;2023-04-06T06:40:52;6.93;;;4.33;;
11847;SDS011;5983;49.966;8.052;2023-04-06T06:43:19;8.37;;;4.10;;
11847;SDS011;5983;49.966;8.052;2023-04-06T06:45:45;5.97;;;4.77;;
11847;SDS011;5983;49.966;8.052;2023-04-06T06:48:12;7.43;;;5.33;;
11847;SDS011;5983;49.966;8.052;2023-04-06T06:50:41;9.20;;;5.70;;
11847;SDS011;5983;49.966;8.052;2023-04-06T06:53:07;7.27;;;5.80;;
11847;SDS011;5983;49.966;8.052;2023-04-06T06:55:35;6.80;;;4.93;;
11847;SDS011;5983;49.966;8.052;2023-04-06T06:58:02;7.40;;;5.83;;
11847;SDS011;5983;49.966;8.052;2023-04-06T07:00:29;9.13;;;5.30;;
11847;SDS011;5983;49.966;8.052;2023-04-06T07:02:56;10.20;;;8.27;;
11847;SDS011;5983;49.966;8.052;2023-04-06T07:05:23;10.80;;;6.83;;
11847;SDS011;5983;49.966;8.052;2023-04-06T07:07:52;9.67;;;7.37;;
11847;SDS011;5983;49.966;8.052;2023-04-06T07:10:19;8.13;;;6.53;;
11847;SDS011;5983;49.966;8.052;2023-04-06T07:12:46;8.73;;;7.17;;
11847;SDS011;5983;49.966;8.052;2023-04-06T07:15:13;10.13;;;8.30;;
11847;SDS011;5983;49.966;8.052;2023-04-06T07:17:40;10.23;;;7.30;;
11847;SDS011;5983;49.966;8.052;2023-04-06T07:20:08;7.10;;;5.63;;
11847;SDS011;5983;49.966;8.052;2023-04-06T07:22:37;10.63;;;6.03;;
11847;SDS011;5983;49.966;8.052;2023-04-06T07:25:06;9.07;;;5.63;;
11847;SDS011;5983;49.966;8.052;2023-04-06T07:27:34;10.13;;;5.30;;
11847;SDS011;5983;49.966;8.052;2023-04-06T07:30:00;10.37;;;5.43;;
11847;SDS011;5983;49.966;8.052;2023-04-06T07:32:28;11.77;;;5.63;;
11847;SDS011;5983;49.966;8.052;2023-04-06T07:34:55;10.90;;;5.80;;
11847;SDS011;5983;49.966;8.052;2023-04-06T07:37:23;7.33;;;4.97;;
11847;SDS011;5983;49.966;8.052;2023-04-06T07:39:50;6.60;;;5.43;;
11847;SDS011;5983;49.966;8.052;2023-04-06T07:42:18;7.77;;;5.57;;
11847;SDS011;5983;49.966;8.052;2023-04-06T07:44:45;12.20;;;5.70;;
11847;SDS011;5983;49.966;8.052;2023-04-06T07:47:11;9.90;;;6.17;;
11847;SDS011;5983;49.966;8.052;2023-04-06T07:49:38;8.00;;;5.13;;
11847;SDS011;5983;49.966;8.052;2023-04-06T07:52:05;6.50;;;5.53;;
11847;SDS011;5983;49.966;8.052;2023-04-06T07:54:32;8.10;;;5.70;;
11847;SDS011;5983;49.966;8.052;2023-04-06T07:56:59;10.43;;;5.30;;
11847;SDS011;5983;49.966;8.052;2023-04-06T07:59:27;7.03;;;5.30;;
11847;SDS011;5983;49.966;8.052;2023-04-06T08:01:54;7.17;;;5.30;;
11847;SDS011;5983;49.966;8.052;2023-04-06T08:04:21;8.53;;;6.07;;
11847;SDS011;5983;49.966;8.052;2023-04-06T08:06:48;10.87;;;6.00;;
11847;SDS011;5983;49.966;8.052;2023-04-06T08:09:15;11.90;;;5.67;;
11847;SDS011;5983;49.966;8.052;2023-04-06T08:11:41;7.47;;;5.97;;
11847;SDS011;5983;49.966;8.052;2023-04-06T08:14:09;8.30;;;5.80;;
11847;SDS011;5983;49.966;8.052;2023-04-06T08:16:37;6.70;;;5.37;;
11847;SDS011;5983;49.966;8.052;2023-04-06T08:19:04;6.33;;;5.00;;
11847;SDS011;5983;49.966;8.052;2023-04-06T08:21:33;7.30;;;5.43;;
11847;SDS011;5983;49.966;8.052;2023-04-06T08:24:00;7.50;;;5.43;;
11847;SDS011;5983;49.966;8.052;2023-04-06T08:26:27;12.17;;;6.33;;
11847;SDS011;5983;49.966;8.052;2023-04-06T08:28:54;7.77;;;5.50;;
11847;SDS011;5983;49.966;8.052;2023-04-06T08:31:21;7.10;;;5.17;;
11847;SDS011;5983;49.966;8.052;2023-04-06T08:33:49;7.43;;;5.43;;
11847;SDS011;5983;49.966;8.052;2023-04-06T08:36:17;9.90;;;5.83;;
11847;SDS011;5983;49.966;8.052;2023-04-06T08:38:47;11.23;;;5.90;;
11847;SDS011;5983;49.966;8.052;2023-04-06T08:41:16;6.93;;;5.50;;
11847;SDS011;5983;49.966;8.052;2023-04-06T08:43:47;7.70;;;5.60;;
11847;SDS011;5983;49.966;8.052;2023-04-06T08:46:17;8.37;;;5.87;;
11847;SDS011;5983;49.966;8.052;2023-04-06T08:48:44;8.73;;;5.73;;
11847;SDS011;5983;49.966;8.052;2023-04-06T08:51:16;6.53;;;5.17;;
11847;SDS011;5983;49.966;8.052;2023-04-06T08:53:45;7.13;;;5.80;;
11847;SDS011;5983;49.966;8.052;2023-04-06T08:56:13;7.83;;;5.57;;
11847;SDS011;5983;49.966;8.052;2023-04-06T08:58:41;10.60;;;5.77;;
11847;SDS011;5983;49.966;8.052;2023-04-06T09:01:11;6.50;;;5.33;;
11847;SDS011;5983;49.966;8.052;2023-04-06T09:03:40;6.97;;;5.37;;
11847;SDS011;5983;49.966;8.052;2023-04-06T09:06:09;7.37;;;4.90;;
11847;SDS011;5983;49.966;8.052;2023-04-06T09:08:39;7.03;;;4.53;;
11847;SDS011;5983;49.966;8.052;2023-04-06T09:11:07;7.40;;;5.43;;
11847;SDS011;5983;49.966;8.052;2023-04-06T09:13:43;9.57;;;5.40;;
11847;SDS011;5983;49.966;8.052;2023-04-06T09:16:12;8.20;;;5.30;;
11847;SDS011;5983;49.966;8.052;2023-04-06T09:18:39;9.27;;;5.17;;
11847;SDS011;5983;49.966;8.052;2023-04-06T09:21:06;10.77;;;6.27;;
11847;SDS011;5983;49.966;8.052;2023-04-06T09:23:34;7.67;;;6.13;;
11847;SDS011;5983;49.966;8.052;2023-04-06T09:26:06;11.17;;;5.47;;
11847;SDS011;5983;49.966;8.052;2023-04-06T09:28:42;6.43;;;5.27;;
11847;SDS011;5983;49.966;8.052;2023-04-06T09:31:11;10.57;;;5.73;;
11847;SDS011;5983;49.966;8.052;2023-04-06T09:33:40;7.30;;;5.53;;
11847;SDS011;5983;49.966;8.052;2023-04-06T09:36:10;13.07;;;6.00;;
11847;SDS011;5983;49.966;8.052;2023-04-06T09:38:40;11.03;;;5.60;;
11847;SDS011;5983;49.966;8.052;2023-04-06T09:41:24;8.57;;;6.20;;
11847;SDS011;5983;49.966;8.052;2023-04-06T09:44:01;7.90;;;5.53;;
11847;SDS011;5983;49.966;8.052;2023-04-06T09:46:30;8.53;;;5.47;;
11847;SDS011;5983;49.966;8.052;2023-04-06T09:49:00;8.80;;;5.47;;
11847;SDS011;5983;49.966;8.052;2023-04-06T09:51:29;6.97;;;5.53;;
11847;SDS011;5983;49.966;8.052;2023-04-06T09:54:01;9.60;;;6.40;;
11847;SDS011;5983;49.966;8.052;2023-04-06T09:56:33;10.67;;;6.87;;
11847;SDS011;5983;49.966;8.052;2023-04-06T09:59:13;9.40;;;6.03;;
11847;SDS011;5983;49.966;8.052;2023-04-06T10:01:46;9.97;;;5.90;;
11847;SDS011;5983;49.966;8.052;2023-04-06T10:04:21;10.93;;;6.63;;
11847;SDS011;5983;49.966;8.052;2023-04-06T10:07:02;6.77;;;5.63;;
11847;SDS011;5983;49.966;8.052;2023-04-06T10:09:32;9.07;;;6.70;;
11847;SDS011;5983;49.966;8.052;2023-04-06T10:12:04;8.20;;;5.77;;
11847;SDS011;5983;49.966;8.052;2023-04-06T10:14:32;9.80;;;6.37;;
11847;SDS011;5983;49.966;8.052;2023-04-06T10:17:02;9.63;;;6.27;;
11847;SDS011;5983;49.966;8.052;2023-04-06T10:19:32;8.30;;;6.13;;
11847;SDS011;5983;49.966;8.052;2023-04-06T10:22:10;7.80;;;5.57;;
11847;SDS011;5983;49.966;8.052;2023-04-06T10:24:47;10.90;;;6.53;;
11847;SDS011;5983;49.966;8.052;2023-04-06T10:27:15;8.37;;;5.77;;
11847;SDS011;5983;49.966;8.052;2023-04-06T10:29:43;8.73;;;5.80;;
11847;SDS011;5983;49.966;8.052;2023-04-06T10:32:11;10.93;;;6.17;;
11847;SDS011;5983;49.966;8.052;2023-04-06T10:34:38;13.17;;;6.57;;
11847;SDS011;5983;49.966;8.052;2023-04-06T10:37:15;16.23;;;6.57;;
11847;SDS011;5983;49.966;8.052;2023-04-06T10:39:45;10.53;;;6.17;;
11847;SDS011;5983;49.966;8.052;2023-04-06T10:42:14;10.23;;;6.57;;
11847;SDS011;5983;49.966;8.052;2023-04-06T10:44:42;8.60;;;6.80;;
11847;SDS011;5983;49.966;8.052;2023-04-06T10:47:15;9.20;;;6.33;;
11847;SDS011;5983;49.966;8.052;2023-04-06T10:49:43;12.60;;;6.50;;
11847;SDS011;5983;49.966;8.052;2023-04-06T10:52:10;9.97;;;6.97;;
11847;SDS011;5983;49.966;8.052;2023-04-06T10:54:40;9.80;;;6.87;;
11847;SDS011;5983;49.966;8.052;2023-04-06T10:57:09;8.67;;;6.40;;
11847;SDS011;5983;49.966;8.052;2023-04-06T10:59:41;8.43;;;6.10;;
11847;SDS011;5983;49.966;8.052;2023-04-06T11:02:12;8.00;;;6.10;;
11847;SDS011;5983;49.966;8.052;2023-04-06T11:04:53;9.63;;;6.50;;
11847;SDS011;5983;49.966;8.052;2023-04-06T11:07:25;9.97;;;6.20;;
11847;SDS011;5983;49.966;8.052;2023-04-06T11:09:55;6.80;;;5.40;;
11847;SDS011;5983;49.966;8.052;2023-04-06T11:12:22;8.20;;;5.80;;
11847;SDS011;5983;49.966;8.052;2023-04-06T11:14:55;8.73;;;6.10;;
11847;SDS011;5983;49.966;8.052;2023-04-06T11:17:27;10.93;;;6.47;;
11847;SDS011;5983;49.966;8.052;2023-04-06T11:19:55;8.83;;;5.87;;
11847;SDS011;5983;49.966;8.052;2023-04-06T11:22:22;12.43;;;6.50;;
11847;SDS011;5983;49.966;8.052;2023-04-06T11:24:50;8.83;;;6.33;;
11847;SDS011;5983;49.966;8.052;2023-04-06T11:27:17;7.43;;;5.77;;
11847;SDS011;5983;49.966;8.052;2023-04-06T11:29:45;8.90;;;6.33;;
11847;SDS011;5983;49.966;8.052;2023-04-06T11:32:20;7.70;;;5.90;;
11847;SDS011;5983;49.966;8.052;2023-04-06T11:34:49;8.43;;;6.30;;
11847;SDS011;5983;49.966;8.052;2023-04-06T11:37:16;10.90;;;5.17;;
11847;SDS011;5983;49.966;8.052;2023-04-06T11:39:46;9.43;;;6.20;;
11847;SDS011;5983;49.966;8.052;2023-04-06T11:42:20;9.23;;;6.17;;
11847;SDS011;5983;49.966;8.052;2023-04-06T11:44:49;11.50;;;6.80;;
11847;SDS011;5983;49.966;8.052;2023-04-06T11:47:19;13.13;;;7.67;;
11847;SDS011;5983;49.966;8.052;2023-04-06T11:49:55;8.83;;;5.83;;
11847;SDS011;5983;49.966;8.052;2023-04-06T11:52:31;9.93;;;6.40;;
11847;SDS011;5983;49.966;8.052;2023-04-06T11:54:58;7.40;;;6.03;;
11847;SDS011;5983;49.966;8.052;2023-04-06T11:57:35;13.60;;;6.57;;
11847;SDS011;5983;49.966;8.052;2023-04-06T12:00:03;7.43;;;5.73;;
11847;SDS011;5983;49.966;8.052;2023-04-06T12:02:32;10.37;;;6.27;;
11847;SDS011;5983;49.966;8.052;2023-04-06T12:04:59;7.63;;;5.13;;
11847;SDS011;5983;49.966;8.052;2023-04-06T12:07:26;7.20;;;5.53;;
11847;SDS011;5983;49.966;8.052;2023-04-06T12:09:54;6.57;;;4.33;;
11847;SDS011;5983;49.966;8.052;2023-04-06T12:12:20;9.57;;;4.83;;
11847;SDS011;5983;49.966;8.052;2023-04-06T12:14:47;5.50;;;4.10;;
11847;SDS011;5983;49.966;8.052;2023-04-06T12:17:14;5.37;;;4.37;;
11847;SDS011;5983;49.966;8.052;2023-04-06T12:19:43;8.67;;;6.33;;
11847;SDS011;5983;49.966;8.052;2023-04-06T12:22:09;11.63;;;6.57;;
11847;SDS011;5983;49.966;8.052;2023-04-06T12:24:36;11.93;;;7.10;;
11847;SDS011;5983;49.966;8.052;2023-04-06T12:27:03;11.77;;;7.23;;
11847;SDS011;5983;49.966;8.052;2023-04-06T12:29:30;12.67;;;7.77;;
11847;SDS011;5983;49.966;8.052;2023-04-06T12:31:57;12.73;;;7.43;;
11847;SDS011;5983;49.966;8.052;2023-04-06T12:34:24;9.07;;;6.30;;
11847;SDS011;5983;49.966;8.052;2023-04-06T12:36:53;7.70;;;4.20;;
11847;SDS011;5983;49.966;8.052;2023-04-06T12:39:20;8.07;;;3.73;;
11847;SDS011;5983;49.966;8.052;2023-04-06T12:41:47;5.00;;;3.47;;
11847;SDS011;5983;49.966;8.052;2023-04-06T12:44:14;9.33;;;4.30;;
11847;SDS011;5983;49.966;8.052;2023-04-06T12:46:41;5.17;;;3.20;;
11847;SDS011;5983;49.966;8.052;2023-04-06T12:49:26;4.37;;;2.87;;
11847;SDS011;5983;49.966;8.052;2023-04-06T12:51:55;3.50;;;2.70;;
11847;SDS011;5983;49.966;8.052;2023-04-06T12:54:22;3.80;;;2.60;;
11847;SDS011;5983;49.966;8.052;2023-04-06T12:56:51;5.20;;;2.97;;
11847;SDS011;5983;49.966;8.052;2023-04-06T12:59:18;5.17;;;3.90;;
11847;SDS011;5983;49.966;8.052;2023-04-06T13:04:42;7.80;;;3.10;;
11847;SDS011;5983;49.966;8.052;2023-04-06T13:07:10;6.33;;;3.33;;
11847;SDS011;5983;49.966;8.052;2023-04-06T13:09:37;7.10;;;4.40;;
11847;SDS011;5983;49.966;8.052;2023-04-06T13:12:04;6.10;;;4.50;;
11847;SDS011;5983;49.966;8.052;2023-04-06T13:14:31;5.33;;;4.13;;
11847;SDS011;5983;49.966;8.052;2023-04-06T13:16:58;4.83;;;3.47;;
11847;SDS011;5983;49.966;8.052;2023-04-06T13:19:26;5.73;;;4.33;;
11847;SDS011;5983;49.966;8.052;2023-04-06T13:21:53;3.80;;;3.07;;
11847;SDS011;5983;49.966;8.052;2023-04-06T13:24:21;5.80;;;3.50;;
11847;SDS011;5983;49.966;8.052;2023-04-06T13:26:48;7.93;;;4.83;;
11847;SDS011;5983;49.966;8.052;2023-04-06T13:32:23;7.50;;;4.03;;
11847;SDS011;5983;49.966;8.052;2023-04-06T13:34:50;4.97;;;4.00;;
11847;SDS011;5983;49.966;8.052;2023-04-06T13:37:20;5.20;;;3.60;;
11847;SDS011;5983;49.966;8.052;2023-04-06T13:39:48;5.43;;;4.07;;
11847;SDS011;5983;49.966;8.052;2023-04-06T13:42:15;5.60;;;4.10;;
11847;SDS011;5983;49.966;8.052;2023-04-06T13:44:42;5.33;;;3.00;;
11847;SDS011;5983;49.966;8.052;2023-04-06T13:47:11;5.80;;;3.70;;
11847;SDS011;5983;49.966;8.052;2023-04-06T13:49:38;8.67;;;4.23;;
11847;SDS011;5983;49.966;8.052;2023-04-06T13:52:05;4.80;;;3.73;;
11847;SDS011;5983;49.966;8.052;2023-04-06T13:54:32;6.37;;;4.17;;
11847;SDS011;5983;49.966;8.052;2023-04-06T13:57:00;4.87;;;3.80;;
11847;SDS011;5983;49.966;8.052;2023-04-06T13:59:31;4.47;;;3.37;;
11847;SDS011;5983;49.966;8.052;2023-04-06T14:01:58;5.73;;;4.13;;
11847;SDS011;5983;49.966;8.052;2023-04-06T14:04:25;6.17;;;4.20;;
11847;SDS011;5983;49.966;8.052;2023-04-06T14:06:53;9.10;;;4.00;;
11847;SDS011;5983;49.966;8.052;2023-04-06T14:09:20;5.50;;;4.10;;
11847;SDS011;5983;49.966;8.052;2023-04-06T14:11:47;7.53;;;4.53;;
11847;SDS011;5983;49.966;8.052;2023-04-06T14:14:16;8.23;;;4.17;;
11847;SDS011;5983;49.966;8.052;2023-04-06T14:16:43;6.67;;;3.87;;
11847;SDS011;5983;49.966;8.052;2023-04-06T14:19:11;5.93;;;3.70;;
11847;SDS011;5983;49.966;8.052;2023-04-06T14:21:40;7.70;;;4.80;;
11847;SDS011;5983;49.966;8.052;2023-04-06T14:24:08;7.70;;;4.60;;
11847;SDS011;5983;49.966;8.052;2023-04-06T14:26:36;9.03;;;4.90;;
11847;SDS011;5983;49.966;8.052;2023-04-06T14:29:04;8.37;;;4.63;;
11847;SDS011;5983;49.966;8.052;2023-04-06T14:31:33;10.03;;;4.87;;
11847;SDS011;5983;49.966;8.052;2023-04-06T14:34:00;8.07;;;4.33;;
11847;SDS011;5983;49.966;8.052;2023-04-06T14:36:28;8.00;;;4.97;;
11847;SDS011;5983;49.966;8.052;2023-04-06T14:39:01;7.27;;;3.97;;
11847;SDS011;5983;49.966;8.052;2023-04-06T14:41:29;6.83;;;4.07;;
11847;SDS011;5983;49.966;8.052;2023-04-06T14:43:57;5.77;;;3.30;;
11847;SDS011;5983;49.966;8.052;2023-04-06T14:46:23;5.80;;;3.43;;
11847;SDS011;5983;49.966;8.052;2023-04-06T14:48:53;3.67;;;2.73;;
11847;SDS011;5983;49.966;8.052;2023-04-06T14:51:21;3.90;;;3.00;;
11847;SDS011;5983;49.966;8.052;2023-04-06T14:53:50;7.17;;;4.00;;
11847;SDS011;5983;49.966;8.052;2023-04-06T14:56:20;5.60;;;4.07;;
11847;SDS011;5983;49.966;8.052;2023-04-06T14:58:48;5.60;;;3.90;;
11847;SDS011;5983;49.966;8.052;2023-04-06T15:01:15;5.53;;;3.83;;
11847;SDS011;5983;49.966;8.052;2023-04-06T15:03:44;5.20;;;3.47;;
11847;SDS011;5983;49.966;8.052;2023-04-06T15:06:15;6.73;;;3.77;;
11847;SDS011;5983;49.966;8.052;2023-04-06T15:08:45;4.43;;;3.10;;
11847;SDS011;5983;49.966;8.052;2023-04-06T15:11:13;4.47;;;2.87;;